Terminal Aerodrome Forecast
Issued by NWS

Home | Current Version | Previous Version | Text Only | Print | Product List | Glossary On
Versions: 1 2 3 4 5 6 7 8 9 10 11 12 13
000
FTUS41 KBTV 062320
TAFRUT
TAF
KRUT 062320Z 0700/0724 13007KT P6SM SCT040 SCT250
     FM071200 16007KT P6SM SCT040 SCT250
     FM071400 17010G16KT P6SM VCSH SCT025 OVC050
      TEMPO 0714/0718 BKN025
     FM072100 19010G16KT P6SM BKN040
      AMD LTD TO CLD VIS AND WIND=

USA.gov is the U.S. government's official web portal to all federal, state and local government web resources and services.